Google Maps JavaScript API Example
Pilot Flight Report # 94859 Submitted by : AST195 on 2021-02-10
Date: 2021-02-10Aircraft: Boeing 747-400
Flight No.: AST0832Distance (Nm): 3425.13
Departure: EGLL - HeathrowDestination: KORD - Chicago-O'Hare International
 TimeFuelWeightSpeeds  
Out (Taxi)2148 Flight RulesIFR
Off (Takeoff)2148 Flight Level
On (Landing)0615 VSTD
In (Ramp)0615 ZFW
Flight8.45  -  8:271000  Pax0
Block8.45  -  8:271000  Cargo0
Departure WeatherEGLL 100550Z AUTO 04006KT 350V070 9999 NCD M01/M05 Q1011 NOSIG
Destination WeatherKORD 100551Z VRB03KT 10SM FEW180 BKN250 M14/M22 A3040 RMK AO2 SLP308 4/013 T11441217 11111 21150 410781178 53003
Flight CommentsN/A